Fure West — OZ2100 — position and weather

sailwx.info

Track history (hours):
 
Tides and Currents Weather Stations Pressure Air Temp Water Temp Dewpoint Dewpoint Depression Visibility Wind Speed Wind Dir Waves Ship Positions

Fure West

Last reported at 2017-Mar-26 21:21 UTC. Time now 2017-Mar-26 22:57 UTC.
Position N 58°21' E 011°26'.

Length 144 m; draft 6.3 m.

MMSI: 231775000.

Date/timePositionNaut miles runAvg speedWind from/ knotsBaromVisibWave heightAir tempDewpointWater temp
2017-Mar-26 21:21N 58°21' E 011°26'4 5.5
2017-Mar-26 20:33N 58°18' E 011°20'8 7.2
2017-Mar-26 19:26N 58°12' E 011°11'0 0.0
2017-Mar-26 18:20N 58°12' E 011°11'0 0.0
2017-Mar-26 17:22N 58°12' E 011°11'0 0.0
2017-Mar-26 16:25N 58°12' E 011°11'0 0.0
2017-Mar-26 15:25N 58°12' E 011°11'0 0.0
2017-Mar-26 14:25N 58°12' E 011°11'0 0.0
2017-Mar-26 13:25N 58°12' E 011°11'0 0.0
2017-Mar-26 12:19N 58°12' E 011°11'0 0.0
2017-Mar-26 11:19N 58°12' E 011°11'0 0.0
2017-Mar-26 10:22N 58°12' E 011°11'1 0.7
2017-Mar-26 09:32N 58°11' E 011°10'0 0.0
2017-Mar-26 08:33N 58°11' E 011°10'0 0.0
2017-Mar-26 07:33N 58°11' E 011°10'0 0.0
2017-Mar-26 06:32N 58°11' E 011°10'0 0.0
2017-Mar-26 05:33N 58°11' E 011°10'0 0.2
2017-Mar-26 04:32N 58°11' E 011°10'10 9.8
2017-Mar-26 03:33N 58°08' E 010°53'1111.6
2017-Mar-26 02:33N 58°02' E 010°34'1211.8
2017-Mar-26 01:32N 57°55' E 010°16'1211.9
2017-Mar-26 00:33N 57°49' E 009°57'4510.9
2017-Mar-25 20:27N 57°21' E 008°51'10811.5
2017-Mar-25 11:08N 55°53' E 006°59'812.0
2017-Mar-25 10:30N 55°46' E 006°53'1112.0
2017-Mar-25 09:33N 55°36' E 006°42'1211.9
2017-Mar-25 08:32N 55°26' E 006°31'2612.0
2017-Mar-25 06:22N 55°04' E 006°07'1012.2
2017-Mar-25 05:33N 54°55' E 005°59'1212.4
2017-Mar-25 04:33N 54°45' E 005°48'1212.3
2017-Mar-25 03:33N 54°34' E 005°37'1212.1
2017-Mar-25 02:33N 54°24' E 005°26'1212.1
2017-Mar-25 01:33N 54°13' E 005°16'1211.8
2017-Mar-25 00:29N 54°02' E 005°06'1111.6
2017-Mar-24 23:32N 53°52' E 004°60'1111.4
2017-Mar-24 22:33N 53°41' E 004°53'1110.9
2017-Mar-24 21:33N 53°31' E 004°47'1110.5
2017-Mar-24 20:33N 53°21' E 004°40'1010.5
2017-Mar-24 19:33N 53°12' E 004°33'1110.8
2017-Mar-24 18:33N 53°03' E 004°23'1110.9
2017-Mar-24 17:33N 52°53' E 004°16'1110.9
2017-Mar-24 16:33N 52°43' E 004°08'1110.8
2017-Mar-24 15:33N 52°35' E 004°21'12 6.0
2017-Mar-24 13:34N 52°28' E 004°37'4 4.3
2017-Mar-24 12:34N 52°26' E 004°43'2 2.4
2017-Mar-24 11:33N 52°25' E 004°46'0 0.0
2017-Mar-24 10:19N 52°25' E 004°46'0 0.0
2017-Mar-24 09:24N 52°25' E 004°46'0 0.0
2017-Mar-24 08:33N 52°25' E 004°46'0 0.0
2017-Mar-24 07:33N 52°25' E 004°46'0 0.0
2017-Mar-24 06:33N 52°25' E 004°46'0 0.0
2017-Mar-24 05:30N 52°25' E 004°46'0 0.0
2017-Mar-24 04:30N 52°25' E 004°46'0 0.0
2017-Mar-24 03:30N 52°25' E 004°46'0 0.0
2017-Mar-24 02:27N 52°25' E 004°46'0 0.0
2017-Mar-24 01:33N 52°25' E 004°46'0 0.0
2017-Mar-24 00:34N 52°25' E 004°46'0 0.0
2017-Mar-23 23:33N 52°25' E 004°46'0 0.0
2017-Mar-23 22:30N 52°25' E 004°46'0 0.0
2017-Mar-23 21:33N 52°25' E 004°46'0 0.0
2017-Mar-23 20:30N 52°25' E 004°46'0 0.0
2017-Mar-23 19:33N 52°25' E 004°46'0 0.0
2017-Mar-23 18:33N 52°25' E 004°46'0 0.0
2017-Mar-23 17:30N 52°25' E 004°46'0 0.0
2017-Mar-23 16:33N 52°25' E 004°46'0 0.0
2017-Mar-23 15:33N 52°25' E 004°46'0 0.2
2017-Mar-23 14:33N 52°25' E 004°47'0 0.0
2017-Mar-23 13:30N 52°25' E 004°47'0 0.0
2017-Mar-23 12:33N 52°25' E 004°47'0 0.0
2017-Mar-23 11:33N 52°25' E 004°47'0 0.0
2017-Mar-23 10:30N 52°25' E 004°47'0 0.0
2017-Mar-23 09:27N 52°25' E 004°47'0 0.0
2017-Mar-23 08:33N 52°25' E 004°47'0 0.0
2017-Mar-23 07:24N 52°25' E 004°47'0 0.0
2017-Mar-22 08:16N 52°25' E 004°47'0 0.0
2017-Mar-22 07:33N 52°25' E 004°47'0 0.0
2017-Mar-22 06:33N 52°25' E 004°47'0 0.0
2017-Mar-22 05:33N 52°25' E 004°47'0 0.0
2017-Mar-22 04:33N 52°25' E 004°47'0 0.0
2017-Mar-22 03:33N 52°25' E 004°47'0 0.0
2017-Mar-22 02:33N 52°25' E 004°47'0 0.0
2017-Mar-22 01:33N 52°25' E 004°47'5 5.4
2017-Mar-22 00:34N 52°28' E 004°39'3 2.9
2017-Mar-21 23:33N 52°28' E 004°34'10 9.7
2017-Mar-21 22:33N 52°28' E 004°18'9 7.7
2017-Mar-21 21:27N 52°27' E 004°05'0 0.0
2017-Mar-21 20:21N 52°27' E 004°05'0 0.0
2017-Mar-21 19:33N 52°27' E 004°05'0 0.0
2017-Mar-21 18:33N 52°27' E 004°05'0 0.0
2017-Mar-21 17:33N 52°27' E 004°05'0 0.1
2017-Mar-21 16:33N 52°27' E 004°05'0 0.0
2017-Mar-21 15:33N 52°27' E 004°05'0 0.0
2017-Mar-21 14:33N 52°27' E 004°05'0 0.0
2017-Mar-21 13:33N 52°27' E 004°05'0 0.0
2017-Mar-21 12:33N 52°27' E 004°05'0 0.0
2017-Mar-21 11:33N 52°27' E 004°05'0 0.1
2017-Mar-21 10:33N 52°27' E 004°05'0 0.1
2017-Mar-21 09:33N 52°27' E 004°05'0 0.0
2017-Mar-21 08:30N 52°27' E 004°05'0 0.0
2017-Mar-21 07:33N 52°27' E 004°05'0 0.0
2017-Mar-21 06:33N 52°27' E 004°05'0 0.0
2017-Mar-21 05:33N 52°27' E 004°05'0 0.0
2017-Mar-21 04:33N 52°27' E 004°05'0 0.1
2017-Mar-21 03:33N 52°27' E 004°05'0 0.0
2017-Mar-21 02:33N 52°27' E 004°05'0 0.1
2017-Mar-21 01:33N 52°27' E 004°05'0 0.0
2017-Mar-21 00:33N 52°27' E 004°05'0 0.0
2017-Mar-20 23:33N 52°27' E 004°05'0 0.0
2017-Mar-20 22:30N 52°27' E 004°05'0 0.0
2017-Mar-20 21:12N 52°27' E 004°05'0 0.0
2017-Mar-20 20:27N 52°27' E 004°05'0 0.0
2017-Mar-20 19:27N 52°27' E 004°05'0 0.0
2017-Mar-20 18:33N 52°27' E 004°05'0 0.0
2017-Mar-20 17:33N 52°27' E 004°05'0 0.0
2017-Mar-20 16:33N 52°27' E 004°05'0 0.0
2017-Mar-20 15:33N 52°27' E 004°05'0 0.0
2017-Mar-20 14:33N 52°27' E 004°05'0 0.0
2017-Mar-20 13:33N 52°27' E 004°05'0 0.0
2017-Mar-20 12:33N 52°27' E 004°05'0 0.0
2017-Mar-20 11:33N 52°27' E 004°05'0 0.0
2017-Mar-20 10:30N 52°27' E 004°05'0 0.0
2017-Mar-20 09:33N 52°27' E 004°05'0 0.0
2017-Mar-20 08:30N 52°27' E 004°05'0 0.0
2017-Mar-20 07:33N 52°27' E 004°04'0 0.0
2017-Mar-20 06:27N 52°27' E 004°05'0 0.0
2017-Mar-20 05:33N 52°27' E 004°05'0 0.0
2017-Mar-20 04:33N 52°27' E 004°05'0 0.0
2017-Mar-20 03:30N 52°27' E 004°05'0 0.1
2017-Mar-20 02:33N 52°27' E 004°05'0 0.0
2017-Mar-20 01:33N 52°27' E 004°05'0 0.0
2017-Mar-20 00:33N 52°27' E 004°05'0 0.0
2017-Mar-19 23:30N 52°27' E 004°05'0 0.0
2017-Mar-19 22:33N 52°27' E 004°05'0 0.0
2017-Mar-19 21:33N 52°27' E 004°05'0 0.0
2017-Mar-19 20:27N 52°27' E 004°05'0 0.0
2017-Mar-19 19:33N 52°27' E 004°05'0 0.0
2017-Mar-19 18:33N 52°27' E 004°05'0 0.0
2017-Mar-19 17:18N 52°27' E 004°05'0 0.0
2017-Mar-19 16:18N 52°27' E 004°05'0 0.0
2017-Mar-19 15:21N 52°27' E 004°05'0 0.0
2017-Mar-19 14:33N 52°27' E 004°05'0 0.0
2017-Mar-19 13:27N 52°27' E 004°05'0 0.0
2017-Mar-19 12:33N 52°27' E 004°05'0 0.0
2017-Mar-19 11:30N 52°27' E 004°05'0 0.0
2017-Mar-19 10:30N 52°27' E 004°05'0 0.0
2017-Mar-19 09:30N 52°27' E 004°05'0 0.0
2017-Mar-19 08:24N 52°27' E 004°05'0 0.0
2017-Mar-19 07:21N 52°27' E 004°05'0 0.0
2017-Mar-19 05:09N 52°27' E 004°05'0 0.0
2017-Mar-19 04:33N 52°27' E 004°05'0 0.0
2017-Mar-19 03:33N 52°27' E 004°05'0 0.2
2017-Mar-19 02:33N 52°27' E 004°04'0 0.1
2017-Mar-19 01:33N 52°27' E 004°04'0 0.0
2017-Mar-19 00:33N 52°27' E 004°04'0 0.1
2017-Mar-18 23:33N 52°27' E 004°04'0 0.1
2017-Mar-18 22:30N 52°27' E 004°05'0 0.1
2017-Mar-18 21:21N 52°27' E 004°04'0 0.0
2017-Mar-18 20:30N 52°27' E 004°04'0 0.0
2017-Mar-18 19:33N 52°27' E 004°04'0 0.0
2017-Mar-18 18:33N 52°27' E 004°04'0 0.0
2017-Mar-18 17:30N 52°27' E 004°04'0 0.1
2017-Mar-18 16:18N 52°27' E 004°05'0 0.1
2017-Mar-18 15:27N 52°27' E 004°05'0 0.1
2017-Mar-18 14:33N 52°27' E 004°04'0 0.0
2017-Mar-18 13:33N 52°27' E 004°04'0 0.0
2017-Mar-18 12:33N 52°27' E 004°04'0 0.1
2017-Mar-18 11:33N 52°27' E 004°04'0 0.1
2017-Mar-18 10:33N 52°27' E 004°05'0 0.1
2017-Mar-18 09:24N 52°27' E 004°05'0 0.0
2017-Mar-18 08:33N 52°27' E 004°05'4 3.6
2017-Mar-18 07:33N 52°24' E 004°01'0 0.3
2017-Mar-18 06:33N 52°23' E 004°02'0 0.3
2017-Mar-18 05:33N 52°24' E 004°02'1 0.7
2017-Mar-18 04:33N 52°24' E 004°03'0 0.4
2017-Mar-18 03:33N 52°24' E 004°02'1 0.7
2017-Mar-18 02:33N 52°23' E 004°03'1 0.6
2017-Mar-18 01:33N 52°24' E 004°03'3 3.0
2017-Mar-18 00:32N 52°27' E 004°04'0 0.0
2017-Mar-17 23:29N 52°27' E 004°04'0 0.0
2017-Mar-17 22:32N 52°27' E 004°04'0 0.0
2017-Mar-17 21:17N 52°27' E 004°04'0 0.0
2017-Mar-17 20:32N 52°27' E 004°04'0 0.0
2017-Mar-17 19:29N 52°27' E 004°04'0 0.0
2017-Mar-17 18:29N 52°27' E 004°04'0 0.0
2017-Mar-17 17:32N 52°27' E 004°04'0 0.1
2017-Mar-17 16:32N 52°27' E 004°04'0 0.1
2017-Mar-17 15:32N 52°27' E 004°04'0 0.1
2017-Mar-17 14:32N 52°27' E 004°04'0 0.1
2017-Mar-17 13:32N 52°26' E 004°04'0 0.1
2017-Mar-17 12:32N 52°26' E 004°04'0 0.0
2017-Mar-17 11:32N 52°26' E 004°04'0 0.0
2017-Mar-17 10:29N 52°26' E 004°04'0 0.1
2017-Mar-17 09:32N 52°27' E 004°04'1 1.2
2017-Mar-17 08:33N 52°27' E 004°03'  
Track history (hours):
 
Tides and Currents Weather Stations Pressure Air Temp Water Temp Dewpoint Dewpoint Depression Visibility Wind Speed Wind Dir Waves Ship Positions

Fure West

Last reported at 2017-Mar-26 21:21 UTC. Time now 2017-Mar-26 22:57 UTC.
Position N 58°21' E 011°26'.

Length 144 m; draft 6.3 m.

MMSI: 231775000.

Date/timePositionNaut miles runAvg speedWind from/ knotsBaromVisibWave heightAir tempDewpointWater temp
2017-Mar-26 21:21N 58°21' E 011°26'4 5.5
2017-Mar-26 20:33N 58°18' E 011°20'8 7.2
2017-Mar-26 19:26N 58°12' E 011°11'0 0.0
2017-Mar-26 18:20N 58°12' E 011°11'0 0.0
2017-Mar-26 17:22N 58°12' E 011°11'0 0.0
2017-Mar-26 16:25N 58°12' E 011°11'0 0.0
2017-Mar-26 15:25N 58°12' E 011°11'0 0.0
2017-Mar-26 14:25N 58°12' E 011°11'0 0.0
2017-Mar-26 13:25N 58°12' E 011°11'0 0.0
2017-Mar-26 12:19N 58°12' E 011°11'0 0.0
2017-Mar-26 11:19N 58°12' E 011°11'0 0.0
2017-Mar-26 10:22N 58°12' E 011°11'1 0.7
2017-Mar-26 09:32N 58°11' E 011°10'0 0.0
2017-Mar-26 08:33N 58°11' E 011°10'0 0.0
2017-Mar-26 07:33N 58°11' E 011°10'0 0.0
2017-Mar-26 06:32N 58°11' E 011°10'0 0.0
2017-Mar-26 05:33N 58°11' E 011°10'0 0.2
2017-Mar-26 04:32N 58°11' E 011°10'10 9.8
2017-Mar-26 03:33N 58°08' E 010°53'1111.6
2017-Mar-26 02:33N 58°02' E 010°34'1211.8
2017-Mar-26 01:32N 57°55' E 010°16'1211.9
2017-Mar-26 00:33N 57°49' E 009°57'4510.9
2017-Mar-25 20:27N 57°21' E 008°51'10811.5
2017-Mar-25 11:08N 55°53' E 006°59'812.0
2017-Mar-25 10:30N 55°46' E 006°53'1112.0
2017-Mar-25 09:33N 55°36' E 006°42'1211.9
2017-Mar-25 08:32N 55°26' E 006°31'2612.0
2017-Mar-25 06:22N 55°04' E 006°07'1012.2
2017-Mar-25 05:33N 54°55' E 005°59'1212.4
2017-Mar-25 04:33N 54°45' E 005°48'1212.3
2017-Mar-25 03:33N 54°34' E 005°37'1212.1
2017-Mar-25 02:33N 54°24' E 005°26'1212.1
2017-Mar-25 01:33N 54°13' E 005°16'1211.8
2017-Mar-25 00:29N 54°02' E 005°06'1111.6
2017-Mar-24 23:32N 53°52' E 004°60'1111.4
2017-Mar-24 22:33N 53°41' E 004°53'1110.9
2017-Mar-24 21:33N 53°31' E 004°47'1110.5
2017-Mar-24 20:33N 53°21' E 004°40'1010.5
2017-Mar-24 19:33N 53°12' E 004°33'1110.8
2017-Mar-24 18:33N 53°03' E 004°23'1110.9
2017-Mar-24 17:33N 52°53' E 004°16'1110.9
2017-Mar-24 16:33N 52°43' E 004°08'1110.8
2017-Mar-24 15:33N 52°35' E 004°21'12 6.0
2017-Mar-24 13:34N 52°28' E 004°37'4 4.3
2017-Mar-24 12:34N 52°26' E 004°43'2 2.4
2017-Mar-24 11:33N 52°25' E 004°46'0 0.0
2017-Mar-24 10:19N 52°25' E 004°46'0 0.0
2017-Mar-24 09:24N 52°25' E 004°46'0 0.0
2017-Mar-24 08:33N 52°25' E 004°46'0 0.0
2017-Mar-24 07:33N 52°25' E 004°46'0 0.0
2017-Mar-24 06:33N 52°25' E 004°46'0 0.0
2017-Mar-24 05:30N 52°25' E 004°46'0 0.0
2017-Mar-24 04:30N 52°25' E 004°46'0 0.0
2017-Mar-24 03:30N 52°25' E 004°46'0 0.0
2017-Mar-24 02:27N 52°25' E 004°46'0 0.0
2017-Mar-24 01:33N 52°25' E 004°46'0 0.0
2017-Mar-24 00:34N 52°25' E 004°46'0 0.0
2017-Mar-23 23:33N 52°25' E 004°46'0 0.0
2017-Mar-23 22:30N 52°25' E 004°46'0 0.0
2017-Mar-23 21:33N 52°25' E 004°46'0 0.0
2017-Mar-23 20:30N 52°25' E 004°46'0 0.0
2017-Mar-23 19:33N 52°25' E 004°46'0 0.0
2017-Mar-23 18:33N 52°25' E 004°46'0 0.0
2017-Mar-23 17:30N 52°25' E 004°46'0 0.0
2017-Mar-23 16:33N 52°25' E 004°46'0 0.0
2017-Mar-23 15:33N 52°25' E 004°46'0 0.2
2017-Mar-23 14:33N 52°25' E 004°47'0 0.0
2017-Mar-23 13:30N 52°25' E 004°47'0 0.0
2017-Mar-23 12:33N 52°25' E 004°47'0 0.0
2017-Mar-23 11:33N 52°25' E 004°47'0 0.0
2017-Mar-23 10:30N 52°25' E 004°47'0 0.0
2017-Mar-23 09:27N 52°25' E 004°47'0 0.0
2017-Mar-23 08:33N 52°25' E 004°47'0 0.0
2017-Mar-23 07:24N 52°25' E 004°47'0 0.0
2017-Mar-22 08:16N 52°25' E 004°47'0 0.0
2017-Mar-22 07:33N 52°25' E 004°47'0 0.0
2017-Mar-22 06:33N 52°25' E 004°47'0 0.0
2017-Mar-22 05:33N 52°25' E 004°47'0 0.0
2017-Mar-22 04:33N 52°25' E 004°47'0 0.0
2017-Mar-22 03:33N 52°25' E 004°47'0 0.0
2017-Mar-22 02:33N 52°25' E 004°47'0 0.0
2017-Mar-22 01:33N 52°25' E 004°47'5 5.4
2017-Mar-22 00:34N 52°28' E 004°39'3 2.9
2017-Mar-21 23:33N 52°28' E 004°34'10 9.7
2017-Mar-21 22:33N 52°28' E 004°18'9 7.7
2017-Mar-21 21:27N 52°27' E 004°05'0 0.0
2017-Mar-21 20:21N 52°27' E 004°05'0 0.0
2017-Mar-21 19:33N 52°27' E 004°05'0 0.0
2017-Mar-21 18:33N 52°27' E 004°05'0 0.0
2017-Mar-21 17:33N 52°27' E 004°05'0 0.1
2017-Mar-21 16:33N 52°27' E 004°05'0 0.0
2017-Mar-21 15:33N 52°27' E 004°05'0 0.0
2017-Mar-21 14:33N 52°27' E 004°05'0 0.0
2017-Mar-21 13:33N 52°27' E 004°05'0 0.0
2017-Mar-21 12:33N 52°27' E 004°05'0 0.0
2017-Mar-21 11:33N 52°27' E 004°05'0 0.1
2017-Mar-21 10:33N 52°27' E 004°05'0 0.1
2017-Mar-21 09:33N 52°27' E 004°05'0 0.0
2017-Mar-21 08:30N 52°27' E 004°05'0 0.0
2017-Mar-21 07:33N 52°27' E 004°05'0 0.0
2017-Mar-21 06:33N 52°27' E 004°05'0 0.0
2017-Mar-21 05:33N 52°27' E 004°05'0 0.0
2017-Mar-21 04:33N 52°27' E 004°05'0 0.1
2017-Mar-21 03:33N 52°27' E 004°05'0 0.0
2017-Mar-21 02:33N 52°27' E 004°05'0 0.1
2017-Mar-21 01:33N 52°27' E 004°05'0 0.0
2017-Mar-21 00:33N 52°27' E 004°05'0 0.0
2017-Mar-20 23:33N 52°27' E 004°05'0 0.0
2017-Mar-20 22:30N 52°27' E 004°05'0 0.0
2017-Mar-20 21:12N 52°27' E 004°05'0 0.0
2017-Mar-20 20:27N 52°27' E 004°05'0 0.0
2017-Mar-20 19:27N 52°27' E 004°05'0 0.0
2017-Mar-20 18:33N 52°27' E 004°05'0 0.0
2017-Mar-20 17:33N 52°27' E 004°05'0 0.0
2017-Mar-20 16:33N 52°27' E 004°05'0 0.0
2017-Mar-20 15:33N 52°27' E 004°05'0 0.0
2017-Mar-20 14:33N 52°27' E 004°05'0 0.0
2017-Mar-20 13:33N 52°27' E 004°05'0 0.0
2017-Mar-20 12:33N 52°27' E 004°05'0 0.0
2017-Mar-20 11:33N 52°27' E 004°05'0 0.0
2017-Mar-20 10:30N 52°27' E 004°05'0 0.0
2017-Mar-20 09:33N 52°27' E 004°05'0 0.0
2017-Mar-20 08:30N 52°27' E 004°05'0 0.0
2017-Mar-20 07:33N 52°27' E 004°04'0 0.0
2017-Mar-20 06:27N 52°27' E 004°05'0 0.0
2017-Mar-20 05:33N 52°27' E 004°05'0 0.0
2017-Mar-20 04:33N 52°27' E 004°05'0 0.0
2017-Mar-20 03:30N 52°27' E 004°05'0 0.1
2017-Mar-20 02:33N 52°27' E 004°05'0 0.0
2017-Mar-20 01:33N 52°27' E 004°05'0 0.0
2017-Mar-20 00:33N 52°27' E 004°05'0 0.0
2017-Mar-19 23:30N 52°27' E 004°05'0 0.0
2017-Mar-19 22:33N 52°27' E 004°05'0 0.0
2017-Mar-19 21:33N 52°27' E 004°05'0 0.0
2017-Mar-19 20:27N 52°27' E 004°05'0 0.0
2017-Mar-19 19:33N 52°27' E 004°05'0 0.0
2017-Mar-19 18:33N 52°27' E 004°05'0 0.0
2017-Mar-19 17:18N 52°27' E 004°05'0 0.0
2017-Mar-19 16:18N 52°27' E 004°05'0 0.0
2017-Mar-19 15:21N 52°27' E 004°05'0 0.0
2017-Mar-19 14:33N 52°27' E 004°05'0 0.0
2017-Mar-19 13:27N 52°27' E 004°05'0 0.0
2017-Mar-19 12:33N 52°27' E 004°05'0 0.0
2017-Mar-19 11:30N 52°27' E 004°05'0 0.0
2017-Mar-19 10:30N 52°27' E 004°05'0 0.0
2017-Mar-19 09:30N 52°27' E 004°05'0 0.0
2017-Mar-19 08:24N 52°27' E 004°05'0 0.0
2017-Mar-19 07:21N 52°27' E 004°05'0 0.0
2017-Mar-19 05:09N 52°27' E 004°05'0 0.0
2017-Mar-19 04:33N 52°27' E 004°05'0 0.0
2017-Mar-19 03:33N 52°27' E 004°05'0 0.2
2017-Mar-19 02:33N 52°27' E 004°04'0 0.1
2017-Mar-19 01:33N 52°27' E 004°04'0 0.0
2017-Mar-19 00:33N 52°27' E 004°04'0 0.1
2017-Mar-18 23:33N 52°27' E 004°04'0 0.1
2017-Mar-18 22:30N 52°27' E 004°05'0 0.1
2017-Mar-18 21:21N 52°27' E 004°04'0 0.0
2017-Mar-18 20:30N 52°27' E 004°04'0 0.0
2017-Mar-18 19:33N 52°27' E 004°04'0 0.0
2017-Mar-18 18:33N 52°27' E 004°04'0 0.0
2017-Mar-18 17:30N 52°27' E 004°04'0 0.1
2017-Mar-18 16:18N 52°27' E 004°05'0 0.1
2017-Mar-18 15:27N 52°27' E 004°05'0 0.1
2017-Mar-18 14:33N 52°27' E 004°04'0 0.0
2017-Mar-18 13:33N 52°27' E 004°04'0 0.0
2017-Mar-18 12:33N 52°27' E 004°04'0 0.1
2017-Mar-18 11:33N 52°27' E 004°04'0 0.1
2017-Mar-18 10:33N 52°27' E 004°05'0 0.1
2017-Mar-18 09:24N 52°27' E 004°05'0 0.0
2017-Mar-18 08:33N 52°27' E 004°05'4 3.6
2017-Mar-18 07:33N 52°24' E 004°01'0 0.3
2017-Mar-18 06:33N 52°23' E 004°02'0 0.3
2017-Mar-18 05:33N 52°24' E 004°02'1 0.7
2017-Mar-18 04:33N 52°24' E 004°03'0 0.4
2017-Mar-18 03:33N 52°24' E 004°02'1 0.7
2017-Mar-18 02:33N 52°23' E 004°03'1 0.6
2017-Mar-18 01:33N 52°24' E 004°03'3 3.0
2017-Mar-18 00:32N 52°27' E 004°04'0 0.0
2017-Mar-17 23:29N 52°27' E 004°04'0 0.0
2017-Mar-17 22:32N 52°27' E 004°04'0 0.0
2017-Mar-17 21:17N 52°27' E 004°04'0 0.0
2017-Mar-17 20:32N 52°27' E 004°04'0 0.0
2017-Mar-17 19:29N 52°27' E 004°04'0 0.0
2017-Mar-17 18:29N 52°27' E 004°04'0 0.0
2017-Mar-17 17:32N 52°27' E 004°04'0 0.1
2017-Mar-17 16:32N 52°27' E 004°04'0 0.1
2017-Mar-17 15:32N 52°27' E 004°04'0 0.1
2017-Mar-17 14:32N 52°27' E 004°04'0 0.1
2017-Mar-17 13:32N 52°26' E 004°04'0 0.1
2017-Mar-17 12:32N 52°26' E 004°04'0 0.0
2017-Mar-17 11:32N 52°26' E 004°04'0 0.0
2017-Mar-17 10:29N 52°26' E 004°04'0 0.1
2017-Mar-17 09:32N 52°27' E 004°04'1 1.2
2017-Mar-17 08:33N 52°27' E 004°03'  

Dump ship's entire track history